sensor_id;sensor_type;location;lat;lon;timestamp;temperature;humidity
5808;DHT22;2930;42.678;23.312;2023-07-22T00:01:55;24.50;69.90
5808;DHT22;2930;42.678;23.312;2023-07-22T00:04:20;24.50;69.50
5808;DHT22;2930;42.678;23.312;2023-07-22T00:06:46;24.60;69.40
5808;DHT22;2930;42.678;23.312;2023-07-22T00:09:12;24.70;69.80
5808;DHT22;2930;42.678;23.312;2023-07-22T00:11:37;24.60;70.10
5808;DHT22;2930;42.678;23.312;2023-07-22T00:14:03;24.50;71.80
5808;DHT22;2930;42.678;23.312;2023-07-22T00:16:31;24.40;72.20
5808;DHT22;2930;42.678;23.312;2023-07-22T00:18:57;24.30;70.50
5808;DHT22;2930;42.678;23.312;2023-07-22T00:21:23;24.40;70.00
5808;DHT22;2930;42.678;23.312;2023-07-22T00:23:48;24.50;70.00
5808;DHT22;2930;42.678;23.312;2023-07-22T00:26:14;24.60;70.00
5808;DHT22;2930;42.678;23.312;2023-07-22T00:28:39;24.60;70.70
5808;DHT22;2930;42.678;23.312;2023-07-22T00:31:05;24.60;70.10
5808;DHT22;2930;42.678;23.312;2023-07-22T00:33:31;24.50;72.30
5808;DHT22;2930;42.678;23.312;2023-07-22T00:35:57;24.30;72.20
5808;DHT22;2930;42.678;23.312;2023-07-22T00:38:23;24.10;73.40
5808;DHT22;2930;42.678;23.312;2023-07-22T00:40:48;24.10;73.40
5808;DHT22;2930;42.678;23.312;2023-07-22T00:43:14;24.20;71.60
5808;DHT22;2930;42.678;23.312;2023-07-22T00:45:40;24.20;72.50
5808;DHT22;2930;42.678;23.312;2023-07-22T00:48:07;24.20;71.20
5808;DHT22;2930;42.678;23.312;2023-07-22T00:50:34;24.20;71.30
5808;DHT22;2930;42.678;23.312;2023-07-22T00:53:00;24.30;71.20
5808;DHT22;2930;42.678;23.312;2023-07-22T00:55:26;24.30;71.00
5808;DHT22;2930;42.678;23.312;2023-07-22T00:57:54;24.20;73.70
5808;DHT22;2930;42.678;23.312;2023-07-22T01:00:19;24.10;71.80
5808;DHT22;2930;42.678;23.312;2023-07-22T01:02:45;24.10;71.90
5808;DHT22;2930;42.678;23.312;2023-07-22T01:05:11;24.20;72.20
5808;DHT22;2930;42.678;23.312;2023-07-22T01:07:38;24.20;71.60
5808;DHT22;2930;42.678;23.312;2023-07-22T01:10:05;24.10;73.20
5808;DHT22;2930;42.678;23.312;2023-07-22T01:12:31;23.90;75.10
5808;DHT22;2930;42.678;23.312;2023-07-22T01:14:57;23.80;73.50
5808;DHT22;2930;42.678;23.312;2023-07-22T01:17:24;23.70;75.40
5808;DHT22;2930;42.678;23.312;2023-07-22T01:19:50;23.70;73.30
5808;DHT22;2930;42.678;23.312;2023-07-22T01:22:16;23.70;74.00
5808;DHT22;2930;42.678;23.312;2023-07-22T01:24:43;23.80;73.40
5808;DHT22;2930;42.678;23.312;2023-07-22T01:27:11;23.80;73.20
5808;DHT22;2930;42.678;23.312;2023-07-22T01:29:37;23.70;74.50
5808;DHT22;2930;42.678;23.312;2023-07-22T01:32:03;23.70;72.90
5808;DHT22;2930;42.678;23.312;2023-07-22T01:34:29;23.40;76.00
5808;DHT22;2930;42.678;23.312;2023-07-22T01:36:57;23.20;76.70
5808;DHT22;2930;42.678;23.312;2023-07-22T01:39:22;23.30;74.30
5808;DHT22;2930;42.678;23.312;2023-07-22T01:41:48;23.30;75.60
5808;DHT22;2930;42.678;23.312;2023-07-22T01:44:14;23.30;74.40
5808;DHT22;2930;42.678;23.312;2023-07-22T01:46:40;23.40;73.80
5808;DHT22;2930;42.678;23.312;2023-07-22T01:49:12;23.40;73.80
5808;DHT22;2930;42.678;23.312;2023-07-22T01:51:38;23.50;73.10
5808;DHT22;2930;42.678;23.312;2023-07-22T01:54:05;23.50;73.90
5808;DHT22;2930;42.678;23.312;2023-07-22T01:56:31;23.50;73.90
5808;DHT22;2930;42.678;23.312;2023-07-22T01:58:57;23.50;74.20
5808;DHT22;2930;42.678;23.312;2023-07-22T02:01:22;23.60;73.90
5808;DHT22;2930;42.678;23.312;2023-07-22T02:03:48;23.60;73.80
5808;DHT22;2930;42.678;23.312;2023-07-22T02:06:14;23.60;73.90
5808;DHT22;2930;42.678;23.312;2023-07-22T02:08:39;23.60;74.30
5808;DHT22;2930;42.678;23.312;2023-07-22T02:11:07;23.40;74.60
5808;DHT22;2930;42.678;23.312;2023-07-22T02:13:34;23.50;74.30
5808;DHT22;2930;42.678;23.312;2023-07-22T02:16:01;23.50;74.20
5808;DHT22;2930;42.678;23.312;2023-07-22T02:18:27;23.50;74.90
5808;DHT22;2930;42.678;23.312;2023-07-22T02:20:53;23.50;74.90
5808;DHT22;2930;42.678;23.312;2023-07-22T02:23:19;23.40;77.20
5808;DHT22;2930;42.678;23.312;2023-07-22T02:25:49;23.20;77.50
5808;DHT22;2930;42.678;23.312;2023-07-22T02:28:14;23.20;75.30
5808;DHT22;2930;42.678;23.312;2023-07-22T02:30:41;23.30;75.70
5808;DHT22;2930;42.678;23.312;2023-07-22T02:33:08;23.40;75.20
5808;DHT22;2930;42.678;23.312;2023-07-22T02:35:33;23.40;75.50
5808;DHT22;2930;42.678;23.312;2023-07-22T02:37:59;23.30;76.60
5808;DHT22;2930;42.678;23.312;2023-07-22T02:40:25;23.20;76.10
5808;DHT22;2930;42.678;23.312;2023-07-22T02:42:51;23.30;75.50
5808;DHT22;2930;42.678;23.312;2023-07-22T02:45:16;23.30;76.90
5808;DHT22;2930;42.678;23.312;2023-07-22T02:47:42;23.10;78.30
5808;DHT22;2930;42.678;23.312;2023-07-22T02:50:08;23.10;76.30
5808;DHT22;2930;42.678;23.312;2023-07-22T02:52:34;23.10;75.80
5808;DHT22;2930;42.678;23.312;2023-07-22T02:55:16;23.10;75.70
5808;DHT22;2930;42.678;23.312;2023-07-22T02:57:46;23.10;75.50
5808;DHT22;2930;42.678;23.312;2023-07-22T03:00:13;22.90;78.50
5808;DHT22;2930;42.678;23.312;2023-07-22T03:02:42;22.80;78.40
5808;DHT22;2930;42.678;23.312;2023-07-22T03:05:08;22.80;79.00
5808;DHT22;2930;42.678;23.312;2023-07-22T03:07:38;22.60;79.40
5808;DHT22;2930;42.678;23.312;2023-07-22T03:10:05;22.40;79.70
5808;DHT22;2930;42.678;23.312;2023-07-22T03:12:31;22.30;78.30
5808;DHT22;2930;42.678;23.312;2023-07-22T03:14:57;22.50;78.10
5808;DHT22;2930;42.678;23.312;2023-07-22T03:17:23;22.50;79.10
5808;DHT22;2930;42.678;23.312;2023-07-22T03:19:48;22.40;80.10
5808;DHT22;2930;42.678;23.312;2023-07-22T03:22:15;22.40;77.90
5808;DHT22;2930;42.678;23.312;2023-07-22T03:24:45;22.40;77.70
5808;DHT22;2930;42.678;23.312;2023-07-22T03:27:11;22.50;78.10
5808;DHT22;2930;42.678;23.312;2023-07-22T03:29:38;22.40;78.70
5808;DHT22;2930;42.678;23.312;2023-07-22T03:32:04;22.40;79.40
5808;DHT22;2930;42.678;23.312;2023-07-22T03:34:31;22.40;80.20
5808;DHT22;2930;42.678;23.312;2023-07-22T03:36:57;22.30;80.40
5808;DHT22;2930;42.678;23.312;2023-07-22T03:39:22;22.30;78.40
5808;DHT22;2930;42.678;23.312;2023-07-22T03:41:48;22.50;77.90
5808;DHT22;2930;42.678;23.312;2023-07-22T03:44:14;22.60;77.50
5808;DHT22;2930;42.678;23.312;2023-07-22T03:46:39;22.70;77.40
5808;DHT22;2930;42.678;23.312;2023-07-22T03:49:05;22.70;77.40
5808;DHT22;2930;42.678;23.312;2023-07-22T03:51:31;22.80;77.30
5808;DHT22;2930;42.678;23.312;2023-07-22T03:53:57;22.80;77.40
5808;DHT22;2930;42.678;23.312;2023-07-22T03:56:23;22.80;77.30
5808;DHT22;2930;42.678;23.312;2023-07-22T03:58:52;22.90;76.90
5808;DHT22;2930;42.678;23.312;2023-07-22T04:01:18;22.90;77.70
5808;DHT22;2930;42.678;23.312;2023-07-22T04:03:44;22.90;79.00
5808;DHT22;2930;42.678;23.312;2023-07-22T04:06:10;22.90;77.00
5808;DHT22;2930;42.678;23.312;2023-07-22T04:08:36;22.90;76.70
5808;DHT22;2930;42.678;23.312;2023-07-22T04:11:03;22.90;78.50
5808;DHT22;2930;42.678;23.312;2023-07-22T04:13:28;22.70;79.60
5808;DHT22;2930;42.678;23.312;2023-07-22T04:15:54;22.70;77.70
5808;DHT22;2930;42.678;23.312;2023-07-22T04:18:21;22.70;79.40
5808;DHT22;2930;42.678;23.312;2023-07-22T04:20:47;22.70;79.90
5808;DHT22;2930;42.678;23.312;2023-07-22T04:23:16;22.70;77.90
5808;DHT22;2930;42.678;23.312;2023-07-22T04:25:44;22.80;79.30
5808;DHT22;2930;42.678;23.312;2023-07-22T04:28:13;22.80;77.70
5808;DHT22;2930;42.678;23.312;2023-07-22T04:30:39;22.70;78.80
5808;DHT22;2930;42.678;23.312;2023-07-22T04:33:05;22.80;77.90
5808;DHT22;2930;42.678;23.312;2023-07-22T04:35:32;22.90;77.60
5808;DHT22;2930;42.678;23.312;2023-07-22T04:37:58;22.80;79.00
5808;DHT22;2930;42.678;23.312;2023-07-22T04:40:24;22.80;79.10
5808;DHT22;2930;42.678;23.312;2023-07-22T04:42:50;22.90;77.40
5808;DHT22;2930;42.678;23.312;2023-07-22T04:45:16;23.00;77.60
5808;DHT22;2930;42.678;23.312;2023-07-22T04:47:43;23.00;77.60
5808;DHT22;2930;42.678;23.312;2023-07-22T04:50:13;23.00;78.50
5808;DHT22;2930;42.678;23.312;2023-07-22T04:52:39;23.00;78.90
5808;DHT22;2930;42.678;23.312;2023-07-22T04:55:05;23.00;77.40
5808;DHT22;2930;42.678;23.312;2023-07-22T04:57:43;23.10;77.70
5808;DHT22;2930;42.678;23.312;2023-07-22T05:00:14;23.10;79.20
5808;DHT22;2930;42.678;23.312;2023-07-22T05:02:40;23.20;76.90
5808;DHT22;2930;42.678;23.312;2023-07-22T05:05:06;23.20;79.50
5808;DHT22;2930;42.678;23.312;2023-07-22T05:07:32;23.20;77.40
5808;DHT22;2930;42.678;23.312;2023-07-22T05:09:58;23.20;78.30
5808;DHT22;2930;42.678;23.312;2023-07-22T05:12:24;23.30;78.60
5808;DHT22;2930;42.678;23.312;2023-07-22T05:14:49;23.40;77.50
5808;DHT22;2930;42.678;23.312;2023-07-22T05:17:15;23.50;77.20
5808;DHT22;2930;42.678;23.312;2023-07-22T05:19:41;23.50;77.40
5808;DHT22;2930;42.678;23.312;2023-07-22T05:22:07;23.60;77.60
5808;DHT22;2930;42.678;23.312;2023-07-22T05:24:32;23.60;79.50
5808;DHT22;2930;42.678;23.312;2023-07-22T05:26:58;23.60;78.70
5808;DHT22;2930;42.678;23.312;2023-07-22T05:29:24;23.70;76.80
5808;DHT22;2930;42.678;23.312;2023-07-22T05:31:49;23.80;77.10
5808;DHT22;2930;42.678;23.312;2023-07-22T05:34:15;23.90;77.90
5808;DHT22;2930;42.678;23.312;2023-07-22T05:36:41;23.90;76.90
5808;DHT22;2930;42.678;23.312;2023-07-22T05:39:06;23.90;76.60
5808;DHT22;2930;42.678;23.312;2023-07-22T05:41:33;24.00;76.70
5808;DHT22;2930;42.678;23.312;2023-07-22T05:43:59;24.00;76.30
5808;DHT22;2930;42.678;23.312;2023-07-22T05:46:24;24.10;76.50
5808;DHT22;2930;42.678;23.312;2023-07-22T05:48:50;24.20;76.60
5808;DHT22;2930;42.678;23.312;2023-07-22T05:51:16;24.20;76.50
5808;DHT22;2930;42.678;23.312;2023-07-22T05:53:42;24.30;76.50
5808;DHT22;2930;42.678;23.312;2023-07-22T05:56:08;24.30;76.90
5808;DHT22;2930;42.678;23.312;2023-07-22T05:58:34;24.40;76.20
5808;DHT22;2930;42.678;23.312;2023-07-22T06:01:00;24.40;77.00
5808;DHT22;2930;42.678;23.312;2023-07-22T06:03:25;24.40;77.70
5808;DHT22;2930;42.678;23.312;2023-07-22T06:05:51;24.40;76.40
5808;DHT22;2930;42.678;23.312;2023-07-22T06:08:17;24.50;76.20
5808;DHT22;2930;42.678;23.312;2023-07-22T06:10:43;24.60;76.10
5808;DHT22;2930;42.678;23.312;2023-07-22T06:13:08;24.60;75.80
5808;DHT22;2930;42.678;23.312;2023-07-22T06:15:34;24.70;75.50
5808;DHT22;2930;42.678;23.312;2023-07-22T06:18:25;24.80;75.70
5808;DHT22;2930;42.678;23.312;2023-07-22T06:20:50;24.80;75.10
5808;DHT22;2930;42.678;23.312;2023-07-22T06:23:16;24.90;76.80
5808;DHT22;2930;42.678;23.312;2023-07-22T06:25:42;24.90;77.80
5808;DHT22;2930;42.678;23.312;2023-07-22T06:28:08;24.90;77.30
5808;DHT22;2930;42.678;23.312;2023-07-22T06:30:34;24.80;77.80
5808;DHT22;2930;42.678;23.312;2023-07-22T06:32:59;24.80;77.60
5808;DHT22;2930;42.678;23.312;2023-07-22T06:35:25;24.90;77.90
5808;DHT22;2930;42.678;23.312;2023-07-22T06:37:51;24.90;78.10
5808;DHT22;2930;42.678;23.312;2023-07-22T06:40:17;24.90;77.90
5808;DHT22;2930;42.678;23.312;2023-07-22T06:42:42;25.00;77.60
5808;DHT22;2930;42.678;23.312;2023-07-22T06:45:08;25.10;75.60
5808;DHT22;2930;42.678;23.312;2023-07-22T06:47:34;25.20;76.00
5808;DHT22;2930;42.678;23.312;2023-07-22T06:50:04;25.40;76.80
5808;DHT22;2930;42.678;23.312;2023-07-22T06:52:31;25.50;76.90
5808;DHT22;2930;42.678;23.312;2023-07-22T06:54:56;25.50;76.10
5808;DHT22;2930;42.678;23.312;2023-07-22T06:57:22;25.50;76.40
5808;DHT22;2930;42.678;23.312;2023-07-22T06:59:48;25.60;76.60
5808;DHT22;2930;42.678;23.312;2023-07-22T07:02:17;25.70;75.40
5808;DHT22;2930;42.678;23.312;2023-07-22T07:04:42;25.80;75.20
5808;DHT22;2930;42.678;23.312;2023-07-22T07:07:08;25.90;75.10
5808;DHT22;2930;42.678;23.312;2023-07-22T07:09:35;26.00;76.00
5808;DHT22;2930;42.678;23.312;2023-07-22T07:12:01;26.10;76.20
5808;DHT22;2930;42.678;23.312;2023-07-22T07:14:26;26.10;75.00
5808;DHT22;2930;42.678;23.312;2023-07-22T07:16:52;26.20;75.70
5808;DHT22;2930;42.678;23.312;2023-07-22T07:19:17;26.30;74.50
5808;DHT22;2930;42.678;23.312;2023-07-22T07:21:43;26.40;75.30
5808;DHT22;2930;42.678;23.312;2023-07-22T07:24:09;26.40;74.60
5808;DHT22;2930;42.678;23.312;2023-07-22T07:26:34;26.40;74.00
5808;DHT22;2930;42.678;23.312;2023-07-22T07:29:00;26.50;75.40
5808;DHT22;2930;42.678;23.312;2023-07-22T07:31:26;26.50;74.00
5808;DHT22;2930;42.678;23.312;2023-07-22T07:33:51;26.60;74.40
5808;DHT22;2930;42.678;23.312;2023-07-22T07:36:17;26.70;74.90
5808;DHT22;2930;42.678;23.312;2023-07-22T07:38:43;26.80;74.30
5808;DHT22;2930;42.678;23.312;2023-07-22T07:41:10;26.90;74.10
5808;DHT22;2930;42.678;23.312;2023-07-22T07:43:42;27.00;73.80
5808;DHT22;2930;42.678;23.312;2023-07-22T07:46:25;27.10;73.80
5808;DHT22;2930;42.678;23.312;2023-07-22T07:48:56;27.20;73.60
5808;DHT22;2930;42.678;23.312;2023-07-22T07:51:24;27.30;72.70
5808;DHT22;2930;42.678;23.312;2023-07-22T07:53:50;27.40;73.00
5808;DHT22;2930;42.678;23.312;2023-07-22T07:56:17;27.50;73.00
5808;DHT22;2930;42.678;23.312;2023-07-22T07:58:44;27.60;72.60
5808;DHT22;2930;42.678;23.312;2023-07-22T08:01:10;27.70;72.20
5808;DHT22;2930;42.678;23.312;2023-07-22T08:03:37;27.80;72.20
5808;DHT22;2930;42.678;23.312;2023-07-22T08:06:03;27.80;72.90
5808;DHT22;2930;42.678;23.312;2023-07-22T08:08:30;27.90;72.10
5808;DHT22;2930;42.678;23.312;2023-07-22T08:10:59;28.00;73.00
5808;DHT22;2930;42.678;23.312;2023-07-22T08:13:25;28.00;72.10
5808;DHT22;2930;42.678;23.312;2023-07-22T08:15:55;28.10;71.80
5808;DHT22;2930;42.678;23.312;2023-07-22T08:18:20;28.20;71.80
5808;DHT22;2930;42.678;23.312;2023-07-22T08:20:46;28.30;71.80
5808;DHT22;2930;42.678;23.312;2023-07-22T08:23:13;28.30;71.70
5808;DHT22;2930;42.678;23.312;2023-07-22T08:25:39;28.40;71.60
5808;DHT22;2930;42.678;23.312;2023-07-22T08:28:04;28.50;71.90
5808;DHT22;2930;42.678;23.312;2023-07-22T08:30:30;28.60;71.90
5808;DHT22;2930;42.678;23.312;2023-07-22T08:32:56;28.70;71.30
5808;DHT22;2930;42.678;23.312;2023-07-22T08:35:21;28.80;71.00
5808;DHT22;2930;42.678;23.312;2023-07-22T08:37:48;28.80;71.20
5808;DHT22;2930;42.678;23.312;2023-07-22T08:40:13;28.90;70.30
5808;DHT22;2930;42.678;23.312;2023-07-22T08:42:40;28.90;70.00
5808;DHT22;2930;42.678;23.312;2023-07-22T08:45:09;29.00;69.80
5808;DHT22;2930;42.678;23.312;2023-07-22T08:47:38;29.10;70.00
5808;DHT22;2930;42.678;23.312;2023-07-22T08:50:06;29.20;71.10
5808;DHT22;2930;42.678;23.312;2023-07-22T08:52:33;29.00;69.40
5808;DHT22;2930;42.678;23.312;2023-07-22T08:55:00;29.10;68.90
5808;DHT22;2930;42.678;23.312;2023-07-22T08:57:28;29.10;69.50
5808;DHT22;2930;42.678;23.312;2023-07-22T08:59:56;29.20;68.90
5808;DHT22;2930;42.678;23.312;2023-07-22T09:02:24;29.30;68.70
5808;DHT22;2930;42.678;23.312;2023-07-22T09:04:50;29.40;68.60
5808;DHT22;2930;42.678;23.312;2023-07-22T09:07:16;29.60;68.70
5808;DHT22;2930;42.678;23.312;2023-07-22T09:09:44;29.70;69.20
5808;DHT22;2930;42.678;23.312;2023-07-22T09:12:10;29.80;69.30
5808;DHT22;2930;42.678;23.312;2023-07-22T09:14:36;30.00;68.80
5808;DHT22;2930;42.678;23.312;2023-07-22T09:17:04;30.00;67.30
5808;DHT22;2930;42.678;23.312;2023-07-22T09:19:31;30.10;67.50
5808;DHT22;2930;42.678;23.312;2023-07-22T09:21:57;30.20;67.60
5808;DHT22;2930;42.678;23.312;2023-07-22T09:24:25;30.30;67.80
5808;DHT22;2930;42.678;23.312;2023-07-22T09:26:51;30.40;67.70
5808;DHT22;2930;42.678;23.312;2023-07-22T09:29:17;30.60;66.90
5808;DHT22;2930;42.678;23.312;2023-07-22T09:31:50;30.80;66.90
5808;DHT22;2930;42.678;23.312;2023-07-22T09:34:16;30.90;66.80
5808;DHT22;2930;42.678;23.312;2023-07-22T09:37:02;31.10;66.60
5808;DHT22;2930;42.678;23.312;2023-07-22T09:39:30;31.30;66.70
5808;DHT22;2930;42.678;23.312;2023-07-22T09:41:56;31.40;67.40
5808;DHT22;2930;42.678;23.312;2023-07-22T09:44:22;31.60;65.50
5808;DHT22;2930;42.678;23.312;2023-07-22T09:46:49;31.70;65.10
5808;DHT22;2930;42.678;23.312;2023-07-22T09:49:17;31.90;65.90
5808;DHT22;2930;42.678;23.312;2023-07-22T09:51:43;32.10;65.50
5808;DHT22;2930;42.678;23.312;2023-07-22T09:54:09;32.20;64.40
5808;DHT22;2930;42.678;23.312;2023-07-22T09:56:48;32.30;62.60
5808;DHT22;2930;42.678;23.312;2023-07-22T09:59:14;32.50;62.50
5808;DHT22;2930;42.678;23.312;2023-07-22T10:01:41;32.60;61.80
5808;DHT22;2930;42.678;23.312;2023-07-22T10:04:08;32.80;60.90
5808;DHT22;2930;42.678;23.312;2023-07-22T10:06:36;33.00;61.40
5808;DHT22;2930;42.678;23.312;2023-07-22T10:09:05;33.20;60.60
5808;DHT22;2930;42.678;23.312;2023-07-22T10:11:34;33.50;61.30
5808;DHT22;2930;42.678;23.312;2023-07-22T10:14:04;33.70;61.60
5808;DHT22;2930;42.678;23.312;2023-07-22T10:16:30;34.00;59.10
5808;DHT22;2930;42.678;23.312;2023-07-22T10:18:57;34.20;60.70
5808;DHT22;2930;42.678;23.312;2023-07-22T10:21:31;34.50;57.90
5808;DHT22;2930;42.678;23.312;2023-07-22T10:23:58;34.90;57.70
5808;DHT22;2930;42.678;23.312;2023-07-22T10:26:25;35.30;56.90
5808;DHT22;2930;42.678;23.312;2023-07-22T10:28:52;35.70;56.80
5808;DHT22;2930;42.678;23.312;2023-07-22T10:31:18;36.20;56.70
5808;DHT22;2930;42.678;23.312;2023-07-22T10:33:45;36.60;54.10
5808;DHT22;2930;42.678;23.312;2023-07-22T10:36:16;36.90;54.80
5808;DHT22;2930;42.678;23.312;2023-07-22T10:38:42;37.50;54.10
5808;DHT22;2930;42.678;23.312;2023-07-22T10:41:12;37.90;51.20
5808;DHT22;2930;42.678;23.312;2023-07-22T10:43:39;38.30;49.90
5808;DHT22;2930;42.678;23.312;2023-07-22T10:46:12;38.80;48.80
5808;DHT22;2930;42.678;23.312;2023-07-22T10:48:42;38.90;48.50
5808;DHT22;2930;42.678;23.312;2023-07-22T10:51:13;38.90;48.90
5808;DHT22;2930;42.678;23.312;2023-07-22T10:53:45;38.90;49.60
5808;DHT22;2930;42.678;23.312;2023-07-22T10:56:13;38.80;51.50
5808;DHT22;2930;42.678;23.312;2023-07-22T11:14:51;40.00;47.60
5808;DHT22;2930;42.678;23.312;2023-07-22T11:17:23;40.10;47.20
5808;DHT22;2930;42.678;23.312;2023-07-22T11:19:53;40.10;46.90
5808;DHT22;2930;42.678;23.312;2023-07-22T11:22:20;40.00;47.10
5808;DHT22;2930;42.678;23.312;2023-07-22T11:24:45;39.80;47.50
5808;DHT22;2930;42.678;23.312;2023-07-22T11:27:12;39.80;47.30
5808;DHT22;2930;42.678;23.312;2023-07-22T11:29:38;40.00;47.10
5808;DHT22;2930;42.678;23.312;2023-07-22T11:32:04;40.30;47.30
5808;DHT22;2930;42.678;23.312;2023-07-22T11:34:30;40.80;46.10
5808;DHT22;2930;42.678;23.312;2023-07-22T11:36:56;41.10;46.00
5808;DHT22;2930;42.678;23.312;2023-07-22T11:39:26;41.20;45.60
5808;DHT22;2930;42.678;23.312;2023-07-22T11:41:53;41.10;47.20
5808;DHT22;2930;42.678;23.312;2023-07-22T11:44:26;41.20;45.70
5808;DHT22;2930;42.678;23.312;2023-07-22T11:51:57;40.70;46.50
5808;DHT22;2930;42.678;23.312;2023-07-22T11:54:24;40.90;45.90
5808;DHT22;2930;42.678;23.312;2023-07-22T11:56:50;41.20;48.10
5808;DHT22;2930;42.678;23.312;2023-07-22T11:59:16;41.60;46.10
5808;DHT22;2930;42.678;23.312;2023-07-22T12:01:44;41.50;44.80
5808;DHT22;2930;42.678;23.312;2023-07-22T12:04:14;41.20;45.80
5808;DHT22;2930;42.678;23.312;2023-07-22T12:06:40;40.80;46.60
5808;DHT22;2930;42.678;23.312;2023-07-22T12:09:08;40.50;46.30
5808;DHT22;2930;42.678;23.312;2023-07-22T12:11:35;40.50;46.60
5808;DHT22;2930;42.678;23.312;2023-07-22T12:14:10;40.60;46.90
5808;DHT22;2930;42.678;23.312;2023-07-22T12:16:38;40.40;46.90
5808;DHT22;2930;42.678;23.312;2023-07-22T12:19:04;40.50;46.60
5808;DHT22;2930;42.678;23.312;2023-07-22T12:21:30;40.70;47.50
5808;DHT22;2930;42.678;23.312;2023-07-22T12:23:57;40.90;46.70
5808;DHT22;2930;42.678;23.312;2023-07-22T12:26:23;41.20;47.60
5808;DHT22;2930;42.678;23.312;2023-07-22T12:28:48;40.90;46.40
5808;DHT22;2930;42.678;23.312;2023-07-22T12:31:14;40.80;48.10
5808;DHT22;2930;42.678;23.312;2023-07-22T12:33:40;41.00;47.00
5808;DHT22;2930;42.678;23.312;2023-07-22T12:36:05;41.10;47.20
5808;DHT22;2930;42.678;23.312;2023-07-22T12:38:32;40.40;46.40
5808;DHT22;2930;42.678;23.312;2023-07-22T12:40:57;40.00;47.30
5808;DHT22;2930;42.678;23.312;2023-07-22T12:43:23;40.20;47.20
5808;DHT22;2930;42.678;23.312;2023-07-22T12:45:49;40.70;48.90
5808;DHT22;2930;42.678;23.312;2023-07-22T12:48:16;41.20;49.90
5808;DHT22;2930;42.678;23.312;2023-07-22T12:50:45;41.80;47.30
5808;DHT22;2930;42.678;23.312;2023-07-22T12:53:13;42.50;47.40
5808;DHT22;2930;42.678;23.312;2023-07-22T12:55:39;43.20;47.80
5808;DHT22;2930;42.678;23.312;2023-07-22T12:58:05;43.60;43.60
5808;DHT22;2930;42.678;23.312;2023-07-22T13:00:31;43.90;44.00
5808;DHT22;2930;42.678;23.312;2023-07-22T13:02:56;44.20;44.90
5808;DHT22;2930;42.678;23.312;2023-07-22T13:05:23;44.30;44.70
5808;DHT22;2930;42.678;23.312;2023-07-22T13:07:48;44.10;44.70
5808;DHT22;2930;42.678;23.312;2023-07-22T13:10:15;43.70;43.00
5808;DHT22;2930;42.678;23.312;2023-07-22T13:12:45;43.30;45.30
5808;DHT22;2930;42.678;23.312;2023-07-22T13:15:11;43.30;44.70
5808;DHT22;2930;42.678;23.312;2023-07-22T13:17:37;42.50;44.80
5808;DHT22;2930;42.678;23.312;2023-07-22T13:20:04;42.30;46.30
5808;DHT22;2930;42.678;23.312;2023-07-22T13:22:32;42.40;45.90
5808;DHT22;2930;42.678;23.312;2023-07-22T13:24:58;42.30;47.00
5808;DHT22;2930;42.678;23.312;2023-07-22T13:27:24;42.30;46.50
5808;DHT22;2930;42.678;23.312;2023-07-22T13:29:49;42.30;45.70
5808;DHT22;2930;42.678;23.312;2023-07-22T13:32:15;42.40;47.40
5808;DHT22;2930;42.678;23.312;2023-07-22T13:34:41;42.40;45.20
5808;DHT22;2930;42.678;23.312;2023-07-22T13:37:06;42.40;44.10
5808;DHT22;2930;42.678;23.312;2023-07-22T13:39:32;42.40;46.00
5808;DHT22;2930;42.678;23.312;2023-07-22T13:41:58;42.60;46.30
5808;DHT22;2930;42.678;23.312;2023-07-22T13:44:24;42.80;44.00
5808;DHT22;2930;42.678;23.312;2023-07-22T13:46:50;42.90;45.30
5808;DHT22;2930;42.678;23.312;2023-07-22T13:49:15;43.20;44.60
5808;DHT22;2930;42.678;23.312;2023-07-22T13:51:41;43.60;44.20
5808;DHT22;2930;42.678;23.312;2023-07-22T13:54:07;44.10;45.50
5808;DHT22;2930;42.678;23.312;2023-07-22T13:56:32;44.50;45.60
5808;DHT22;2930;42.678;23.312;2023-07-22T13:59:00;44.80;43.10
5808;DHT22;2930;42.678;23.312;2023-07-22T14:01:26;45.10;44.00
5808;DHT22;2930;42.678;23.312;2023-07-22T14:03:53;45.40;43.10
5808;DHT22;2930;42.678;23.312;2023-07-22T14:06:18;45.80;43.00
5808;DHT22;2930;42.678;23.312;2023-07-22T14:08:44;46.00;41.90
5808;DHT22;2930;42.678;23.312;2023-07-22T14:11:09;46.30;42.00
5808;DHT22;2930;42.678;23.312;2023-07-22T14:13:35;46.40;41.80
5808;DHT22;2930;42.678;23.312;2023-07-22T14:16:02;46.50;42.60
5808;DHT22;2930;42.678;23.312;2023-07-22T14:18:29;46.50;41.60
5808;DHT22;2930;42.678;23.312;2023-07-22T14:20:54;46.50;40.90
5808;DHT22;2930;42.678;23.312;2023-07-22T14:23:20;46.60;40.50
5808;DHT22;2930;42.678;23.312;2023-07-22T14:25:46;46.60;42.00
5808;DHT22;2930;42.678;23.312;2023-07-22T14:28:12;46.60;40.40
5808;DHT22;2930;42.678;23.312;2023-07-22T14:30:37;46.60;40.40
5808;DHT22;2930;42.678;23.312;2023-07-22T14:33:03;46.70;40.80
5808;DHT22;2930;42.678;23.312;2023-07-22T14:35:29;46.80;41.50
5808;DHT22;2930;42.678;23.312;2023-07-22T14:37:54;46.90;41.70
5808;DHT22;2930;42.678;23.312;2023-07-22T14:40:21;47.00;42.70
5808;DHT22;2930;42.678;23.312;2023-07-22T14:42:47;47.10;41.50
5808;DHT22;2930;42.678;23.312;2023-07-22T14:45:12;47.20;41.50
5808;DHT22;2930;42.678;23.312;2023-07-22T14:47:38;47.20;41.50
5808;DHT22;2930;42.678;23.312;2023-07-22T14:50:04;47.10;41.40
5808;DHT22;2930;42.678;23.312;2023-07-22T14:52:30;46.90;41.40
5808;DHT22;2930;42.678;23.312;2023-07-22T14:54:56;46.60;41.90
5808;DHT22;2930;42.678;23.312;2023-07-22T14:57:21;46.30;42.70
5808;DHT22;2930;42.678;23.312;2023-07-22T14:59:47;46.30;41.10
5808;DHT22;2930;42.678;23.312;2023-07-22T15:02:14;46.30;41.40
5808;DHT22;2930;42.678;23.312;2023-07-22T15:04:39;46.30;40.90
5808;DHT22;2930;42.678;23.312;2023-07-22T15:07:05;46.30;42.00
5808;DHT22;2930;42.678;23.312;2023-07-22T15:09:30;46.20;41.60
5808;DHT22;2930;42.678;23.312;2023-07-22T15:11:56;46.30;42.00
5808;DHT22;2930;42.678;23.312;2023-07-22T15:14:22;46.20;41.90
5808;DHT22;2930;42.678;23.312;2023-07-22T15:16:47;46.20;41.10
5808;DHT22;2930;42.678;23.312;2023-07-22T15:19:13;46.30;41.30
5808;DHT22;2930;42.678;23.312;2023-07-22T15:21:39;46.30;42.20
5808;DHT22;2930;42.678;23.312;2023-07-22T15:24:05;46.10;39.70
5808;DHT22;2930;42.678;23.312;2023-07-22T15:26:30;45.60;39.30
5808;DHT22;2930;42.678;23.312;2023-07-22T15:28:56;45.00;39.30
5808;DHT22;2930;42.678;23.312;2023-07-22T15:31:22;44.70;40.30
5808;DHT22;2930;42.678;23.312;2023-07-22T15:33:48;44.50;39.70
5808;DHT22;2930;42.678;23.312;2023-07-22T15:36:14;44.20;41.50
5808;DHT22;2930;42.678;23.312;2023-07-22T15:38:40;44.00;41.40
5808;DHT22;2930;42.678;23.312;2023-07-22T15:41:06;43.80;42.70
5808;DHT22;2930;42.678;23.312;2023-07-22T15:43:32;43.60;43.00
5808;DHT22;2930;42.678;23.312;2023-07-22T15:45:58;43.50;42.90
5808;DHT22;2930;42.678;23.312;2023-07-22T15:48:24;43.40;42.90
5808;DHT22;2930;42.678;23.312;2023-07-22T15:50:50;43.20;42.90
5808;DHT22;2930;42.678;23.312;2023-07-22T15:53:16;43.00;43.30
5808;DHT22;2930;42.678;23.312;2023-07-22T15:55:41;42.80;43.40
5808;DHT22;2930;42.678;23.312;2023-07-22T15:58:08;42.40;43.50
5808;DHT22;2930;42.678;23.312;2023-07-22T16:00:33;41.90;44.70
5808;DHT22;2930;42.678;23.312;2023-07-22T16:02:59;41.40;44.60